createdAt,value
2022-07-28T00:02:10.636Z,99.90
2022-07-28T00:04:40.025Z,99.90
2022-07-28T00:07:08.103Z,99.90
2022-07-28T00:09:36.244Z,99.90
2022-07-28T00:12:04.446Z,99.90
2022-07-28T00:14:32.923Z,99.90
2022-07-28T00:17:00.980Z,99.90
2022-07-28T00:19:29.028Z,99.90
2022-07-28T00:21:58.590Z,99.90
2022-07-28T00:24:26.626Z,99.90
2022-07-28T00:26:54.652Z,99.90
2022-07-28T00:29:22.724Z,99.90
2022-07-28T00:31:53.075Z,99.90
2022-07-28T00:34:21.175Z,99.90
2022-07-28T00:36:54.713Z,99.90
2022-07-28T00:39:24.681Z,99.90
2022-07-28T00:41:52.787Z,99.90
2022-07-28T00:44:20.921Z,99.90
2022-07-28T00:46:49.793Z,99.90
2022-07-28T00:49:18.100Z,99.90
2022-07-28T00:51:47.167Z,99.90
2022-07-28T00:54:15.507Z,99.90
2022-07-28T00:56:45.243Z,99.90
2022-07-28T00:59:13.357Z,99.90
2022-07-28T01:01:41.491Z,99.90
2022-07-28T01:04:09.767Z,99.90
2022-07-28T01:06:53.877Z,99.90
2022-07-28T01:09:38.554Z,99.90
2022-07-28T01:12:16.269Z,99.90
2022-07-28T01:14:49.817Z,99.90
2022-07-28T01:17:27.849Z,99.90
2022-07-28T01:20:05.946Z,99.90
2022-07-28T01:22:39.764Z,99.90
2022-07-28T01:25:18.964Z,99.90
2022-07-28T01:28:01.510Z,99.90
2022-07-28T01:30:36.258Z,99.90
2022-07-28T01:33:17.674Z,99.90
2022-07-28T01:35:49.012Z,99.90
2022-07-28T01:38:19.563Z,99.90
2022-07-28T01:40:48.407Z,99.90
2022-07-28T01:43:24.366Z,99.90
2022-07-28T01:45:55.954Z,99.90
2022-07-28T01:48:25.983Z,99.90
2022-07-28T01:50:56.505Z,99.90
2022-07-28T01:53:27.296Z,99.90
2022-07-28T01:55:57.155Z,99.90
2022-07-28T01:58:29.190Z,99.90
2022-07-28T02:01:00.246Z,99.90
2022-07-28T02:03:30.255Z,99.90
2022-07-28T02:05:59.403Z,99.90
2022-07-28T02:08:29.619Z,99.90
2022-07-28T02:11:17.434Z,99.90
2022-07-28T02:13:47.837Z,99.90
2022-07-28T02:16:22.066Z,99.90
2022-07-28T02:18:51.668Z,99.90
2022-07-28T02:21:21.026Z,99.90
2022-07-28T02:23:51.378Z,99.90
2022-07-28T02:26:23.086Z,99.90
2022-07-28T02:28:55.030Z,99.90
2022-07-28T02:31:29.781Z,99.90
2022-07-28T02:34:04.246Z,99.90
2022-07-28T02:36:41.554Z,99.90
2022-07-28T02:39:19.696Z,99.90
2022-07-28T02:41:51.845Z,99.90
2022-07-28T02:44:26.703Z,99.90
2022-07-28T02:46:59.238Z,99.90
2022-07-28T02:49:32.672Z,99.90
2022-07-28T02:52:01.688Z,99.90
2022-07-28T02:54:31.298Z,99.90
2022-07-28T02:57:01.117Z,99.90
2022-07-28T02:59:30.297Z,99.90
2022-07-28T03:07:20.525Z,99.90
2022-07-28T03:09:49.452Z,99.90
2022-07-28T03:12:17.673Z,99.90
2022-07-28T03:14:46.068Z,99.90
2022-07-28T03:17:14.261Z,99.90
2022-07-28T03:19:42.638Z,99.90
2022-07-28T03:22:11.770Z,99.90
2022-07-28T03:24:44.203Z,99.90
2022-07-28T03:27:18.823Z,99.90
2022-07-28T03:29:51.990Z,99.90
2022-07-28T03:32:21.310Z,99.90
2022-07-28T03:34:49.827Z,99.90
2022-07-28T03:37:22.252Z,99.90
2022-07-28T03:39:52.913Z,99.90
2022-07-28T03:42:23.008Z,99.90
2022-07-28T03:44:52.489Z,99.90
2022-07-28T03:47:23.980Z,99.90
2022-07-28T03:49:52.115Z,99.90
2022-07-28T03:52:20.318Z,99.90
2022-07-28T03:54:48.556Z,99.90
2022-07-28T03:57:17.956Z,99.90
2022-07-28T03:59:46.062Z,99.90
2022-07-28T04:02:14.131Z,99.90
2022-07-28T04:04:42.217Z,99.90
2022-07-28T04:07:10.260Z,99.90
2022-07-28T04:09:38.295Z,99.90
2022-07-28T04:12:06.889Z,99.90
2022-07-28T04:14:36.461Z,99.90
2022-07-28T04:17:04.679Z,99.90
2022-07-28T04:19:32.741Z,99.90
2022-07-28T04:22:00.782Z,99.90
2022-07-28T04:24:28.882Z,99.90
2022-07-28T04:26:57.319Z,99.90
2022-07-28T04:29:27.192Z,99.90
2022-07-28T04:31:56.986Z,99.90
2022-07-28T04:34:25.002Z,99.90
2022-07-28T04:36:53.235Z,99.90
2022-07-28T04:39:21.304Z,99.90
2022-07-28T04:41:50.573Z,99.90
2022-07-28T04:44:18.627Z,99.90
2022-07-28T04:46:46.826Z,99.90
2022-07-28T04:49:16.431Z,99.90
2022-07-28T04:51:49.241Z,99.90
2022-07-28T04:54:18.436Z,99.90
2022-07-28T04:56:48.147Z,99.90
2022-07-28T04:59:16.843Z,99.90
2022-07-28T05:01:46.273Z,99.90
2022-07-28T05:04:14.814Z,99.90
2022-07-28T05:06:44.526Z,99.90
2022-07-28T05:09:12.640Z,99.90
2022-07-28T05:11:40.684Z,99.90
2022-07-28T05:14:09.019Z,99.90
2022-07-28T05:16:40.821Z,99.90
2022-07-28T05:19:08.971Z,99.90
2022-07-28T05:21:37.090Z,99.90
2022-07-28T05:24:07.706Z,99.90
2022-07-28T05:26:35.835Z,99.90
2022-07-28T05:29:03.934Z,99.90
2022-07-28T05:31:31.995Z,99.90
2022-07-28T05:34:00.490Z,99.90
2022-07-28T05:36:28.862Z,99.90
2022-07-28T05:38:56.929Z,99.90
2022-07-28T05:41:26.353Z,99.90
2022-07-28T05:43:54.391Z,99.90
2022-07-28T05:46:22.580Z,99.90
2022-07-28T05:48:51.784Z,99.90
2022-07-28T05:51:19.957Z,99.90
2022-07-28T05:53:48.088Z,99.90
2022-07-28T05:56:16.130Z,99.90
2022-07-28T05:58:45.478Z,99.90
2022-07-28T06:01:13.625Z,99.90
2022-07-28T06:03:42.459Z,99.90
2022-07-28T06:06:15.842Z,99.90
2022-07-28T06:08:46.205Z,99.90
2022-07-28T06:11:20.468Z,99.90
2022-07-28T06:13:52.585Z,99.90
2022-07-28T06:16:22.545Z,99.90
2022-07-28T06:18:51.314Z,99.90
2022-07-28T06:21:19.378Z,99.90
2022-07-28T06:23:47.511Z,99.90
2022-07-28T06:26:15.568Z,99.90
2022-07-28T06:28:43.569Z,99.90
2022-07-28T06:31:13.087Z,99.90
2022-07-28T06:33:41.239Z,99.90
2022-07-28T06:36:09.272Z,97.80
2022-07-28T06:38:37.332Z,96.20
2022-07-28T06:41:05.415Z,96.20
2022-07-28T06:43:38.262Z,93.80
2022-07-28T06:46:06.878Z,93.20
2022-07-28T06:48:37.876Z,96.10
2022-07-28T06:51:06.288Z,98.70
2022-07-28T06:53:34.726Z,99.30
2022-07-28T06:56:03.719Z,99.80
2022-07-28T06:58:31.862Z,99.90
2022-07-28T07:01:00.089Z,99.90
2022-07-28T07:03:28.292Z,99.90
2022-07-28T07:05:57.839Z,99.90
2022-07-28T07:08:25.935Z,99.90
2022-07-28T07:10:55.028Z,99.90
2022-07-28T07:13:23.062Z,99.90
2022-07-28T07:15:52.513Z,99.90
2022-07-28T07:18:20.571Z,99.90
2022-07-28T07:20:49.080Z,99.90
2022-07-28T07:23:18.463Z,99.90
2022-07-28T07:25:46.465Z,99.90
2022-07-28T07:28:14.519Z,99.90
2022-07-28T07:30:42.809Z,99.90
2022-07-28T07:33:10.952Z,99.90
2022-07-28T07:35:39.115Z,99.60
2022-07-28T07:38:07.213Z,99.30
2022-07-28T07:40:36.766Z,98.70
2022-07-28T07:43:04.980Z,98.10
2022-07-28T07:45:34.406Z,98.10
2022-07-28T07:48:03.277Z,97.00
2022-07-28T07:50:31.444Z,96.30
2022-07-28T07:52:59.601Z,95.60
2022-07-28T07:55:27.648Z,94.60
2022-07-28T07:58:04.127Z,93.10
2022-07-28T08:00:32.334Z,93.20
2022-07-28T08:03:01.377Z,92.40
2022-07-28T08:05:35.777Z,92.70
2022-07-28T08:08:05.877Z,92.20
2022-07-28T08:10:34.184Z,91.10
2022-07-28T08:13:05.206Z,91.20
2022-07-28T08:15:33.727Z,91.80
2022-07-28T08:18:02.003Z,91.60
2022-07-28T08:20:30.286Z,91.40
2022-07-28T08:22:58.839Z,90.20
2022-07-28T08:25:27.146Z,90.20
2022-07-28T08:27:55.288Z,89.50
2022-07-28T08:30:28.812Z,89.70
2022-07-28T08:33:00.418Z,90.00
2022-07-28T08:35:34.315Z,90.00
2022-07-28T08:38:04.222Z,88.60
2022-07-28T08:40:33.304Z,86.60
2022-07-28T08:43:10.413Z,88.80
2022-07-28T08:45:40.914Z,88.60
2022-07-28T08:48:12.650Z,87.10
2022-07-28T08:50:40.879Z,86.70
2022-07-28T08:53:09.260Z,87.60
2022-07-28T08:55:37.893Z,87.60
2022-07-28T08:58:06.014Z,86.40
2022-07-28T09:00:34.255Z,87.10
2022-07-28T09:03:05.437Z,86.00
2022-07-28T09:05:34.131Z,83.20
2022-07-28T09:08:03.080Z,85.90
2022-07-28T09:10:31.203Z,86.50
2022-07-28T09:12:59.265Z,85.10
2022-07-28T09:15:27.381Z,85.70
2022-07-28T09:17:55.654Z,85.10
2022-07-28T09:20:25.490Z,85.70
2022-07-28T09:22:58.369Z,86.80
2022-07-28T09:25:27.110Z,87.20
2022-07-28T09:27:55.338Z,86.70
2022-07-28T09:30:31.053Z,85.70
2022-07-28T09:33:41.855Z,84.60
2022-07-28T09:36:16.505Z,85.00
2022-07-28T09:38:44.768Z,84.30
2022-07-28T09:41:13.258Z,83.90
2022-07-28T09:43:43.435Z,83.30
2022-07-28T09:46:13.309Z,83.30
2022-07-28T09:48:53.971Z,84.00
2022-07-28T09:51:25.852Z,84.20
2022-07-28T09:53:55.037Z,83.90
2022-07-28T09:56:26.136Z,85.00
2022-07-28T09:58:55.750Z,85.20
2022-07-28T10:01:29.190Z,86.20
2022-07-28T10:04:05.212Z,86.80
2022-07-28T10:06:37.795Z,85.90
2022-07-28T10:09:07.897Z,85.00
2022-07-28T10:11:41.380Z,85.50
2022-07-28T10:14:09.956Z,84.10
2022-07-28T10:16:46.870Z,83.70
2022-07-28T10:19:14.889Z,84.70
2022-07-28T10:21:45.541Z,83.60
2022-07-28T10:24:22.049Z,83.50
2022-07-28T10:26:50.718Z,81.60
2022-07-28T10:29:22.091Z,81.40
2022-07-28T10:31:53.565Z,83.10
2022-07-28T10:34:24.917Z,83.00
2022-07-28T10:36:56.614Z,82.30
2022-07-28T10:39:29.852Z,83.00
2022-07-28T10:41:58.947Z,84.30
2022-07-28T10:44:28.498Z,85.00
2022-07-28T10:46:58.300Z,83.60
2022-07-28T10:49:32.688Z,84.30
2022-07-28T10:52:06.745Z,85.10
2022-07-28T10:54:49.975Z,85.60
2022-07-28T10:57:18.819Z,86.00
2022-07-28T11:00:13.237Z,87.90
2022-07-28T11:02:50.382Z,87.30
2022-07-28T11:05:30.564Z,86.40
2022-07-28T11:08:02.756Z,87.00
2022-07-28T11:10:43.305Z,87.50
2022-07-28T11:13:29.200Z,86.70
2022-07-28T11:15:58.570Z,86.20
2022-07-28T11:18:29.412Z,86.90
2022-07-28T11:21:08.066Z,86.60
2022-07-28T11:23:54.310Z,87.00
2022-07-28T11:26:34.949Z,87.80
2022-07-28T11:29:19.651Z,86.40
2022-07-28T11:32:06.736Z,85.30
2022-07-28T11:35:08.518Z,86.80
2022-07-28T11:38:11.289Z,87.00
2022-07-28T11:40:43.001Z,86.80
2022-07-28T11:43:36.608Z,86.80
2022-07-28T11:46:37.535Z,85.70
2022-07-28T11:49:24.955Z,85.80
2022-07-28T11:52:16.645Z,84.80
2022-07-28T11:54:51.276Z,84.50
2022-07-28T11:57:24.171Z,86.60
2022-07-28T11:59:54.692Z,85.10
2022-07-28T12:02:26.213Z,84.90
2022-07-28T12:05:03.574Z,85.10
2022-07-28T12:07:46.616Z,85.80
2022-07-28T12:13:25.691Z,85.60
2022-07-28T12:15:53.904Z,85.70
2022-07-28T12:18:24.642Z,85.50
2022-07-28T12:20:54.803Z,85.10
2022-07-28T12:23:38.952Z,85.10
2022-07-28T12:26:13.918Z,85.50
2022-07-28T12:28:51.446Z,85.30
2022-07-28T12:31:19.623Z,85.00
2022-07-28T12:33:47.685Z,85.00
2022-07-28T12:36:18.977Z,84.90
2022-07-28T12:38:47.370Z,84.70
2022-07-28T12:41:16.557Z,85.20
2022-07-28T12:43:53.134Z,83.60
2022-07-28T12:46:23.020Z,83.10
2022-07-28T12:48:55.787Z,83.30
2022-07-28T12:51:38.442Z,83.60
2022-07-28T12:54:07.861Z,84.00
2022-07-28T12:56:46.737Z,84.80
2022-07-28T12:59:18.300Z,85.00
2022-07-28T13:01:51.340Z,83.90
2022-07-28T13:04:39.601Z,83.60
2022-07-28T13:07:10.652Z,84.10
2022-07-28T13:09:47.112Z,84.20
2022-07-28T13:12:18.851Z,84.30
2022-07-28T13:14:51.974Z,83.50
2022-07-28T13:17:20.519Z,84.90
2022-07-28T13:19:49.496Z,83.60
2022-07-28T13:22:27.778Z,84.50
2022-07-28T13:24:57.990Z,84.20
2022-07-28T13:27:26.570Z,83.60
2022-07-28T13:29:56.879Z,83.90
2022-07-28T13:32:25.057Z,83.70
2022-07-28T13:34:53.431Z,83.50
2022-07-28T13:37:21.487Z,84.00
2022-07-28T13:39:54.401Z,84.00
2022-07-28T13:42:23.598Z,84.30
2022-07-28T13:44:51.977Z,83.50
2022-07-28T13:47:21.536Z,84.50
2022-07-28T13:49:49.610Z,83.80
2022-07-28T13:52:29.369Z,84.10
2022-07-28T13:55:03.863Z,83.00
2022-07-28T13:57:35.651Z,83.00
2022-07-28T14:00:08.126Z,83.70
2022-07-28T14:02:37.753Z,83.20
2022-07-28T14:05:06.594Z,83.30
2022-07-28T14:07:35.288Z,83.60
2022-07-28T14:10:03.461Z,83.40
2022-07-28T14:12:37.595Z,83.60
2022-07-28T14:15:09.713Z,82.90
2022-07-28T14:17:43.306Z,83.30
2022-07-28T14:20:14.308Z,82.40
2022-07-28T14:22:42.632Z,83.20
2022-07-28T14:25:11.599Z,82.90
2022-07-28T14:27:42.454Z,83.60
2022-07-28T14:30:12.102Z,82.90
2022-07-28T14:32:41.488Z,83.20
2022-07-28T14:35:10.058Z,82.70
2022-07-28T14:38:04.844Z,83.20
2022-07-28T14:40:26.985Z,82.60
2022-07-28T14:42:55.090Z,81.00
2022-07-28T14:45:23.371Z,80.20
2022-07-28T14:47:52.778Z,80.70
2022-07-28T14:50:20.934Z,79.80
2022-07-28T14:52:49.348Z,79.80
2022-07-28T14:55:17.686Z,80.20
2022-07-28T14:57:52.484Z,80.50
2022-07-28T15:00:24.508Z,81.20
2022-07-28T15:02:54.087Z,80.20
2022-07-28T15:05:23.167Z,80.50
2022-07-28T15:07:52.269Z,80.90
2022-07-28T15:10:21.371Z,80.60
2022-07-28T15:12:50.058Z,81.20
2022-07-28T15:15:18.317Z,81.10
2022-07-28T15:17:46.370Z,81.10
2022-07-28T15:20:15.907Z,81.70
2022-07-28T15:22:43.931Z,81.70
2022-07-28T15:25:11.995Z,82.40
2022-07-28T15:27:45.484Z,82.50
2022-07-28T15:30:15.136Z,82.90
2022-07-28T15:32:57.224Z,82.70
2022-07-28T15:35:27.305Z,82.70
2022-07-28T15:37:55.796Z,82.20
2022-07-28T15:40:25.180Z,82.40
2022-07-28T15:42:53.237Z,82.20
2022-07-28T15:45:21.375Z,82.90
2022-07-28T15:47:49.871Z,81.80
2022-07-28T15:50:17.903Z,81.70
2022-07-28T15:52:47.339Z,82.10
2022-07-28T15:55:15.381Z,82.50
2022-07-28T15:57:43.422Z,82.30
2022-07-28T16:00:11.905Z,82.40
2022-07-28T16:02:39.987Z,82.30
2022-07-28T16:05:08.524Z,82.80
2022-07-28T16:07:37.888Z,82.20
2022-07-28T16:10:09.854Z,82.70
2022-07-28T16:12:37.920Z,83.30
2022-07-28T16:15:06.555Z,83.00
2022-07-28T16:17:34.594Z,83.10
2022-07-28T16:20:03.078Z,82.80
2022-07-28T16:22:33.813Z,83.50
2022-07-28T16:25:02.083Z,83.30
2022-07-28T16:27:31.563Z,83.40
2022-07-28T16:29:59.604Z,83.50
2022-07-28T16:32:30.081Z,83.60
2022-07-28T16:34:58.168Z,83.60
2022-07-28T16:37:26.886Z,84.00
2022-07-28T16:39:54.905Z,84.00
2022-07-28T16:42:22.954Z,84.50
2022-07-28T16:44:52.423Z,83.80
2022-07-28T16:47:20.429Z,84.00
2022-07-28T16:49:48.544Z,83.90
2022-07-28T16:52:16.719Z,84.40
2022-07-28T16:54:45.682Z,85.10
2022-07-28T16:57:15.891Z,84.50
2022-07-28T16:59:47.916Z,84.50
2022-07-28T17:02:19.122Z,84.60
2022-07-28T17:04:47.373Z,84.30
2022-07-28T17:07:15.603Z,84.50
2022-07-28T17:09:44.267Z,85.10
2022-07-28T17:12:12.592Z,85.50
2022-07-28T17:14:40.698Z,85.50
2022-07-28T17:17:09.114Z,85.70
2022-07-28T17:19:43.427Z,85.60
2022-07-28T17:22:15.457Z,85.50
2022-07-28T17:24:43.697Z,84.50
2022-07-28T17:29:59.793Z,85.50
2022-07-28T17:32:27.895Z,85.30
2022-07-28T17:34:57.318Z,85.40
2022-07-28T17:37:27.301Z,86.10
2022-07-28T17:39:55.312Z,86.50
2022-07-28T17:42:23.356Z,86.30
2022-07-28T17:44:53.635Z,86.40
2022-07-28T17:47:24.026Z,86.20
2022-07-28T17:50:07.280Z,86.70
2022-07-28T17:52:35.382Z,86.70
2022-07-28T17:55:23.467Z,87.10
2022-07-28T17:57:52.852Z,87.30
2022-07-28T18:00:21.911Z,87.20
2022-07-28T18:02:50.980Z,87.80
2022-07-28T18:05:21.016Z,88.30
2022-07-28T18:07:51.087Z,88.40
2022-07-28T18:10:25.046Z,88.50
2022-07-28T18:12:55.428Z,88.90
2022-07-28T18:15:23.632Z,89.00
2022-07-28T18:17:55.012Z,89.20
2022-07-28T18:20:25.880Z,89.40
2022-07-28T18:22:54.116Z,89.40
2022-07-28T18:25:22.229Z,89.50
2022-07-28T18:27:50.642Z,89.70
2022-07-28T18:30:18.957Z,90.00
2022-07-28T18:32:47.063Z,90.30
2022-07-28T18:35:15.813Z,90.20
2022-07-28T18:37:46.199Z,90.10
2022-07-28T18:40:15.455Z,90.10
2022-07-28T18:42:43.510Z,90.10
2022-07-28T18:45:12.347Z,90.30
2022-07-28T18:47:47.516Z,90.20
2022-07-28T18:50:30.367Z,90.20
2022-07-28T18:53:01.041Z,90.50
2022-07-28T18:55:29.259Z,90.50
2022-07-28T18:57:57.320Z,90.40
2022-07-28T19:00:25.490Z,90.70
2022-07-28T19:02:53.617Z,90.70
2022-07-28T19:05:21.782Z,90.80
2022-07-28T19:07:50.086Z,90.90
2022-07-28T19:10:19.509Z,91.00
2022-07-28T19:12:48.166Z,91.10
2022-07-28T19:15:16.275Z,91.40
2022-07-28T19:17:44.310Z,91.30
2022-07-28T19:20:12.920Z,91.30
2022-07-28T19:22:41.277Z,91.50
2022-07-28T19:25:11.265Z,91.50
2022-07-28T19:27:40.699Z,91.60
2022-07-28T19:30:10.295Z,91.80
2022-07-28T19:32:41.756Z,91.80
2022-07-28T19:35:11.165Z,91.70
2022-07-28T19:37:39.670Z,91.70
2022-07-28T19:40:10.410Z,91.80
2022-07-28T19:42:38.454Z,91.80
2022-07-28T19:45:09.414Z,92.00
2022-07-28T19:47:37.447Z,92.00
2022-07-28T19:50:06.464Z,92.00
2022-07-28T19:52:34.830Z,92.20
2022-07-28T19:55:06.441Z,92.30
2022-07-28T19:57:35.353Z,92.40
2022-07-28T20:00:03.418Z,92.40
2022-07-28T20:02:32.978Z,92.50
2022-07-28T20:05:01.041Z,92.40
2022-07-28T20:07:29.138Z,92.50
2022-07-28T20:09:57.208Z,92.60
2022-07-28T20:12:25.470Z,92.60
2022-07-28T20:14:53.547Z,92.70
2022-07-28T20:17:37.538Z,92.90
2022-07-28T20:20:10.288Z,93.00
2022-07-28T20:22:41.066Z,93.10
2022-07-28T20:25:10.328Z,93.20
2022-07-28T20:27:40.128Z,93.20
2022-07-28T20:30:10.067Z,93.20
2022-07-28T20:32:38.195Z,93.30
2022-07-28T20:35:08.920Z,93.40
2022-07-28T20:37:37.947Z,93.60
2022-07-28T20:40:07.891Z,93.70
2022-07-28T20:42:36.741Z,93.80
2022-07-28T20:45:06.074Z,93.90
2022-07-28T20:47:34.554Z,94.00
2022-07-28T20:50:05.153Z,94.00
2022-07-28T20:52:35.478Z,94.10
2022-07-28T20:55:04.528Z,94.00
2022-07-28T20:57:32.688Z,94.00
2022-07-28T21:00:00.721Z,94.10
2022-07-28T21:02:28.831Z,94.10
2022-07-28T21:04:56.895Z,94.30
2022-07-28T21:08:00.274Z,94.40
2022-07-28T21:10:14.850Z,94.50
2022-07-28T21:12:42.895Z,94.70
2022-07-28T21:15:12.979Z,94.80
2022-07-28T21:17:40.990Z,95.00
2022-07-28T21:20:10.114Z,95.10
2022-07-28T21:22:38.155Z,95.30
2022-07-28T21:25:08.111Z,95.40
2022-07-28T21:27:51.403Z,95.50
2022-07-28T21:30:19.646Z,95.70
2022-07-28T21:32:55.852Z,95.90
2022-07-28T21:35:23.934Z,96.10
2022-07-28T21:37:52.008Z,96.30
2022-07-28T21:40:20.109Z,96.50
2022-07-28T21:42:49.536Z,96.90
2022-07-28T21:45:17.684Z,96.80
2022-07-28T21:47:46.202Z,97.00
2022-07-28T21:50:14.709Z,97.00
2022-07-28T21:52:42.977Z,97.40
2022-07-28T21:55:11.272Z,97.60
2022-07-28T21:57:39.437Z,97.90
2022-07-28T22:00:11.737Z,98.20
2022-07-28T22:02:41.148Z,98.30
2022-07-28T22:05:09.971Z,98.50
2022-07-28T22:07:38.062Z,98.70
2022-07-28T22:10:06.868Z,98.90
2022-07-28T22:12:35.124Z,99.20
2022-07-28T22:15:03.270Z,99.60
2022-07-28T22:17:32.694Z,99.90
2022-07-28T22:20:00.709Z,99.90
2022-07-28T22:22:28.841Z,99.90
2022-07-28T22:24:56.922Z,99.90
2022-07-28T22:27:25.132Z,99.80
2022-07-28T22:29:53.241Z,99.80
2022-07-28T22:32:28.538Z,99.90
2022-07-28T22:34:59.149Z,99.90
2022-07-28T22:37:27.337Z,99.90
2022-07-28T22:39:55.419Z,99.90
2022-07-28T22:42:23.435Z,99.90
2022-07-28T22:56:25.848Z,99.90
2022-07-28T22:58:53.937Z,99.90
2022-07-28T23:01:22.037Z,99.90
2022-07-28T23:03:50.172Z,99.90
2022-07-28T23:06:18.991Z,99.90
2022-07-28T23:08:47.081Z,99.90
2022-07-28T23:11:15.324Z,99.90
2022-07-28T23:13:44.751Z,99.90
2022-07-28T23:16:16.243Z,99.90
2022-07-28T23:18:45.339Z,99.90
2022-07-28T23:21:13.896Z,99.90
2022-07-28T23:23:42.016Z,99.90
2022-07-28T23:26:10.270Z,99.90
2022-07-28T23:28:38.928Z,99.90
2022-07-28T23:31:08.451Z,99.90
2022-07-28T23:33:56.334Z,99.90
2022-07-28T23:36:26.520Z,99.90
2022-07-28T23:38:56.335Z,99.90
2022-07-28T23:41:24.865Z,99.90
2022-07-28T23:43:53.034Z,99.90
2022-07-28T23:46:22.923Z,99.90
2022-07-28T23:48:51.826Z,99.90
2022-07-28T23:51:21.262Z,99.90
2022-07-28T23:53:54.308Z,99.90
2022-07-28T23:56:24.505Z,99.90
2022-07-28T23:58:52.606Z,99.90
